Time;durP1;ratioP1;P1;durP2;ratioP2;P2;SDS_P1;SDS_P2;PMS_P1;PMS_P2;Temp;Humidity;BMP_temperature;BMP_pressure;BME280_temperature;BME280_humidity;BME280_pressure;Samples;Min_cycle;Max_cycle;Signal;HPM_P1;HPM_P2
2024/01/29 00:00:03;;;;;;;4.87;2.90;;;;;;;2.54;88.40;102418.84;4932762;29;20038;-90
2024/01/29 00:02:30;;;;;;;4.80;3.13;;;;;;;2.53;88.65;102411.06;4932880;29;20031;-90
2024/01/29 00:04:55;;;;;;;5.30;3.27;;;;;;;2.51;88.17;102413.59;4947761;29;20019;-89
2024/01/29 00:07:21;;;;;;;5.00;3.10;;;;;;;2.50;88.26;102411.84;4933298;29;20508;-90
2024/01/29 00:09:47;;;;;;;5.43;3.17;;;;;;;2.53;88.62;102411.06;4933041;29;20078;-91
2024/01/29 00:12:12;;;;;;;4.97;2.97;;;;;;;2.52;88.97;102406.75;4933015;29;20082;-91
2024/01/29 00:14:37;;;;;;;4.43;3.00;;;;;;;2.50;88.68;102411.84;4932776;29;20028;-90
2024/01/29 00:17:03;;;;;;;4.90;3.07;;;;;;;2.49;88.92;102414.34;4932771;29;20055;-91
2024/01/29 00:19:28;;;;;;;5.20;3.20;;;;;;;2.47;88.75;102410.88;4932595;29;20094;-90
2024/01/29 00:21:53;;;;;;;5.43;3.27;;;;;;;2.44;89.04;102411.63;4933097;29;20155;-89
2024/01/29 00:24:19;;;;;;;6.63;3.30;;;;;;;2.43;89.07;102405.63;4932755;29;20031;-90
2024/01/29 00:26:44;;;;;;;8.13;3.30;;;;;;;2.42;88.79;102403.00;4932884;29;20034;-90
2024/01/29 00:29:10;;;;;;;5.67;3.20;;;;;;;2.41;88.99;102407.28;4932699;29;20038;-89
2024/01/29 00:31:35;;;;;;;5.57;3.20;;;;;;;2.40;88.71;102404.63;4932201;29;20035;-90
2024/01/29 00:34:00;;;;;;;4.90;2.87;;;;;;;2.40;88.86;102409.78;4916039;29;20051;-91
2024/01/29 00:36:26;;;;;;;5.60;3.30;;;;;;;2.40;89.23;102402.06;4932946;29;20030;-90
2024/01/29 00:38:51;;;;;;;5.20;3.33;;;;;;;2.42;88.91;102408.13;4932533;29;20035;-91
2024/01/29 00:41:16;;;;;;;6.10;3.50;;;;;;;2.41;89.45;102406.38;4932503;29;20043;-90
2024/01/29 00:43:42;;;;;;;6.13;3.20;;;;;;;2.42;89.24;102410.72;4932300;29;20032;-90
2024/01/29 00:46:07;;;;;;;5.30;3.40;;;;;;;2.42;89.19;102413.28;4915467;29;20023;-90
2024/01/29 00:48:33;;;;;;;5.00;3.10;;;;;;;2.45;89.23;102408.25;4947006;29;20059;-91
2024/01/29 00:50:58;;;;;;;5.63;3.30;;;;;;;2.45;88.70;102408.25;4932187;29;20426;-91
2024/01/29 00:53:24;;;;;;;6.43;3.33;;;;;;;2.43;89.47;102409.88;4931876;29;20500;-90
2024/01/29 00:55:49;;;;;;;6.37;3.03;;;;;;;2.42;89.33;102408.13;4931636;29;20031;-91
2024/01/29 00:58:15;;;;;;;5.57;3.17;;;;;;;2.40;89.49;102399.50;4931996;29;20028;-89
2024/01/29 01:00:41;;;;;;;5.80;3.20;;;;;;;2.37;89.25;102390.00;4932197;29;20046;-90
2024/01/29 01:03:07;;;;;;;6.90;3.40;;;;;;;2.35;89.57;102399.34;4932090;29;20425;-90
2024/01/29 01:05:33;;;;;;;6.70;3.37;;;;;;;2.33;89.27;102398.44;4931421;29;20511;-90
2024/01/29 01:08:00;;;;;;;6.37;3.50;;;;;;;2.32;89.88;102406.94;4946464;29;20031;-88
2024/01/29 01:10:25;;;;;;;5.50;3.57;;;;;;;2.31;89.83;102412.06;4931831;29;20031;-90
2024/01/29 01:12:50;;;;;;;5.50;3.20;;;;;;;2.31;89.93;102419.75;4930837;29;20031;-90
2024/01/29 01:15:16;;;;;;;7.10;3.40;;;;;;;2.32;90.07;102416.38;4931607;29;20660;-90
2024/01/29 01:17:41;;;;;;;5.10;3.33;;;;;;;2.35;89.93;102419.03;4914903;29;20477;-90
2024/01/29 01:20:07;;;;;;;6.17;2.90;;;;;;;2.36;89.88;102418.22;4931409;29;20114;-90
2024/01/29 01:22:32;;;;;;;5.37;3.20;;;;;;;2.38;89.65;102426.88;4929290;29;20023;-91
2024/01/29 01:24:57;;;;;;;5.70;3.30;;;;;;;2.42;89.56;102431.25;4931733;29;20028;-90
2024/01/29 01:27:23;;;;;;;5.63;3.33;;;;;;;2.43;89.22;102435.56;4931880;29;20174;-90
2024/01/29 01:29:49;;;;;;;6.83;3.70;;;;;;;2.44;89.16;102439.88;4914648;29;20028;-91
2024/01/29 01:32:14;;;;;;;7.00;3.77;;;;;;;2.47;89.32;102434.84;4931044;29;20034;-91
2024/01/29 01:34:39;;;;;;;6.90;3.77;;;;;;;2.48;89.08;102431.47;4915328;29;20039;-90
2024/01/29 01:37:05;;;;;;;5.80;3.60;;;;;;;2.48;89.17;102433.16;4931431;29;20031;-90
2024/01/29 01:39:31;;;;;;;7.00;3.90;;;;;;;2.48;89.07;102431.47;4931286;29;20032;-91
2024/01/29 01:41:56;;;;;;;6.07;3.90;;;;;;;2.49;89.10;102430.66;4914691;29;20418;-90
2024/01/29 01:44:21;;;;;;;7.17;3.73;;;;;;;2.50;88.96;102432.41;4914150;29;20544;-90
2024/01/29 01:46:47;;;;;;;6.90;3.80;;;;;;;2.49;89.10;102425.50;4930967;29;20070;-89
2024/01/29 01:49:12;;;;;;;5.67;3.63;;;;;;;2.47;89.60;102440.00;4931216;29;20115;-90
2024/01/29 01:51:39;;;;;;;5.97;3.73;;;;;;;2.43;89.02;102435.56;4930937;29;20028;-90
2024/01/29 01:54:07;;;;;;;6.07;3.60;;;;;;;2.40;89.34;102438.03;4932812;29;20051;-89
2024/01/29 01:56:33;;;;;;;5.70;3.40;;;;;;;2.38;89.37;102439.69;4934440;29;20035;-90
2024/01/29 01:59:00;;;;;;;5.53;3.43;;;;;;;2.33;89.37;102436.94;4934865;29;20059;-89
2024/01/29 02:01:30;;;;;;;6.37;3.83;;;;;;;2.30;89.47;102439.44;4934881;29;20059;-90
2024/01/29 02:03:55;;;;;;;5.50;3.37;;;;;;;2.31;89.51;102437.72;4934213;29;20035;-89
2024/01/29 02:06:20;;;;;;;5.80;3.40;;;;;;;2.29;89.91;102430.00;4934372;29;20043;-90
2024/01/29 02:08:46;;;;;;;5.73;3.33;;;;;;;2.28;89.74;102439.38;4934760;29;20086;-90
2024/01/29 02:11:11;;;;;;;6.67;3.50;;;;;;;2.27;89.84;102437.63;4917900;29;20035;-90
2024/01/29 02:13:36;;;;;;;6.63;3.43;;;;;;;2.26;89.78;102437.59;4934636;29;20059;-90
2024/01/29 02:16:03;;;;;;;5.40;3.53;;;;;;;2.25;89.92;102435.84;4934498;29;20478;-90
2024/01/29 02:18:29;;;;;;;6.37;3.77;;;;;;;2.25;90.38;102436.69;4934598;29;20078;-90
2024/01/29 02:20:55;;;;;;;5.83;3.53;;;;;;;2.24;90.44;102432.38;4934751;29;20477;-89
2024/01/29 02:23:20;;;;;;;6.27;3.67;;;;;;;2.26;90.51;102435.88;4934747;29;20038;-91
2024/01/29 02:25:46;;;;;;;5.83;3.60;;;;;;;2.27;90.61;102440.19;4934087;29;20023;-90
2024/01/29 02:28:11;;;;;;;5.87;3.33;;;;;;;2.30;90.52;102435.97;4949562;29;20038;-90
2024/01/29 02:30:36;;;;;;;6.33;3.40;;;;;;;2.31;90.59;102435.16;4934465;29;20031;-90
2024/01/29 02:33:02;;;;;;;8.37;3.97;;;;;;;2.34;90.56;102441.28;4934463;29;20028;-90
2024/01/29 02:35:28;;;;;;;7.00;4.00;;;;;;;2.36;90.60;102439.63;4934468;29;20058;-91
2024/01/29 02:37:54;;;;;;;5.90;3.70;;;;;;;2.38;90.45;102432.00;4949545;28;20503;-89
2024/01/29 02:40:19;;;;;;;5.40;3.57;;;;;;;2.40;90.68;102431.22;4933626;29;20024;-89
2024/01/29 02:42:44;;;;;;;6.10;3.80;;;;;;;2.42;90.64;102428.69;4934637;29;20051;-90
2024/01/29 02:45:10;;;;;;;8.80;3.80;;;;;;;2.43;90.52;102425.28;4933531;29;20072;-89
2024/01/29 02:47:35;;;;;;;6.60;3.70;;;;;;;2.45;90.67;102421.09;4934196;29;20385;-90
2024/01/29 02:50:00;;;;;;;5.67;3.40;;;;;;;2.46;90.40;102424.53;4934547;29;20028;-91
2024/01/29 02:52:26;;;;;;;6.37;3.50;;;;;;;2.48;90.56;102418.63;4934411;29;20685;-90
2024/01/29 02:54:51;;;;;;;6.80;3.50;;;;;;;2.50;90.50;102427.25;4933790;29;20102;-91
2024/01/29 02:57:23;;;;;;;5.67;3.50;;;;;;;2.51;90.28;102417.84;4933992;29;20035;-90
2024/01/29 02:59:49;;;;;;;8.17;3.70;;;;;;;2.51;90.39;102418.75;4934187;29;20034;-90
2024/01/29 03:02:14;;;;;;;7.97;3.67;;;;;;;2.52;90.77;102420.47;4933950;29;20027;-90
2024/01/29 03:04:39;;;;;;;6.27;3.47;;;;;;;2.53;90.55;102417.09;4918159;29;20039;-91
2024/01/29 03:07:05;;;;;;;6.60;3.70;;;;;;;2.54;90.50;102418.84;4933412;29;20106;-89
2024/01/29 03:09:30;;;;;;;7.97;4.03;;;;;;;2.52;90.25;102419.59;4948844;28;20127;-90
2024/01/29 03:11:56;;;;;;;5.37;3.40;;;;;;;2.53;90.57;102416.22;4934091;29;20037;-91
2024/01/29 03:14:21;;;;;;;8.17;3.63;;;;;;;2.53;90.83;102417.09;4934019;29;20087;-91
2024/01/29 03:16:47;;;;;;;6.57;3.90;;;;;;;2.54;90.61;102425.66;4948294;28;20370;-90
2024/01/29 03:19:12;;;;;;;6.43;3.50;;;;;;;2.51;90.64;102420.41;4933690;29;20032;-91
2024/01/29 03:21:37;;;;;;;6.37;3.50;;;;;;;2.51;90.51;102418.75;4933435;29;20027;-91
2024/01/29 03:24:03;;;;;;;5.43;3.30;;;;;;;2.52;90.97;102423.06;4916903;29;20076;-91
2024/01/29 03:26:28;;;;;;;5.97;3.50;;;;;;;2.52;91.03;102412.78;4917914;29;20553;-90
2024/01/29 03:28:54;;;;;;;6.10;3.47;;;;;;;2.54;91.00;102418.84;4933809;29;20032;-92
2024/01/29 03:31:19;;;;;;;6.37;3.80;;;;;;;2.54;90.79;102429.13;4932363;29;20024;-91
2024/01/29 03:33:45;;;;;;;6.00;3.73;;;;;;;2.56;90.93;102431.72;4933630;29;20485;-90
2024/01/29 03:36:11;;;;;;;7.17;3.70;;;;;;;2.53;91.00;102427.38;4932915;29;20500;-90
2024/01/29 03:38:36;;;;;;;6.00;3.53;;;;;;;2.54;90.99;102429.13;4933066;29;20019;-90
2024/01/29 03:41:02;;;;;;;7.57;3.50;;;;;;;2.54;90.92;102431.69;4932998;29;20414;-91
2024/01/29 03:43:28;;;;;;;5.10;3.33;;;;;;;2.54;90.93;102425.66;4933079;29;20028;-91
2024/01/29 03:45:54;;;;;;;5.90;3.40;;;;;;;2.52;91.09;102428.19;4933084;29;20043;-90
2024/01/29 03:48:19;;;;;;;5.90;3.43;;;;;;;2.53;91.41;102427.38;4932642;29;20054;-89
2024/01/29 03:50:45;;;;;;;4.73;3.23;;;;;;;2.55;91.20;102441.16;4933817;29;20532;-89
2024/01/29 03:53:10;;;;;;;5.77;3.40;;;;;;;2.56;91.18;102434.28;4916725;29;20086;-90
2024/01/29 03:55:36;;;;;;;5.67;3.27;;;;;;;2.55;91.05;102435.13;4932786;29;20020;-90
2024/01/29 03:58:01;;;;;;;5.17;3.10;;;;;;;2.51;90.79;102444.44;4933070;29;20028;-91
2024/01/29 04:00:27;;;;;;;6.47;3.30;;;;;;;2.47;90.80;102452.84;4932860;29;20043;-88
2024/01/29 04:02:52;;;;;;;8.67;3.80;;;;;;;2.39;90.42;102439.75;4931738;29;20481;-90
2024/01/29 04:05:18;;;;;;;6.23;3.47;;;;;;;2.33;90.24;102443.78;4932759;29;20102;-89
2024/01/29 04:07:45;;;;;;;6.37;3.57;;;;;;;2.24;89.59;102442.66;4947393;29;20458;-89
2024/01/29 04:10:10;;;;;;;5.50;3.60;;;;;;;2.14;90.53;102443.16;4916380;29;20037;-89
2024/01/29 04:12:35;;;;;;;7.07;3.80;;;;;;;2.07;90.72;102442.06;4932388;29;20024;-89
2024/01/29 04:15:01;;;;;;;5.60;3.67;;;;;;;2.00;90.54;102445.22;4932848;29;20552;-90
2024/01/29 04:17:26;;;;;;;6.20;3.67;;;;;;;1.94;90.80;102443.31;4932374;29;20039;-90
2024/01/29 04:19:51;;;;;;;5.63;3.50;;;;;;;1.88;90.69;102444.78;4932012;29;20036;-90
2024/01/29 04:22:17;;;;;;;5.97;3.70;;;;;;;1.86;90.87;102447.31;4932501;29;20032;-90
2024/01/29 04:24:42;;;;;;;5.00;3.10;;;;;;;1.82;91.17;102453.16;4932493;29;20027;-89
2024/01/29 04:27:07;;;;;;;5.77;3.37;;;;;;;1.80;91.57;102452.22;4932629;29;20377;-90
2024/01/29 04:29:33;;;;;;;6.30;3.40;;;;;;;1.76;91.39;102448.66;4932098;29;20035;-90
2024/01/29 04:31:58;;;;;;;5.57;3.57;;;;;;;1.76;91.56;102445.22;4932103;29;20031;-90
2024/01/29 04:34:23;;;;;;;5.43;3.70;;;;;;;1.74;91.52;102444.28;4916817;29;20043;-90
2024/01/29 04:36:49;;;;;;;6.80;3.30;;;;;;;1.73;92.08;102460.50;4932433;29;20032;-89
2024/01/29 04:39:14;;;;;;;5.53;3.67;;;;;;;1.73;92.47;102450.22;4932237;29;20062;-90
2024/01/29 04:41:39;;;;;;;5.60;3.60;;;;;;;1.77;93.55;102454.66;4932059;29;20055;-90
2024/01/29 04:44:05;;;;;;;6.10;3.60;;;;;;;1.86;93.63;102451.56;4932089;29;20043;-91
2024/01/29 04:46:30;;;;;;;6.03;3.60;;;;;;;1.93;93.69;102451.84;4916329;29;20148;-90
2024/01/29 04:48:56;;;;;;;5.90;3.50;;;;;;;2.00;93.77;102450.38;4931068;29;20024;-90
2024/01/29 04:51:21;;;;;;;6.83;3.77;;;;;;;2.06;93.98;102454.84;4931447;29;20114;-89
2024/01/29 04:53:47;;;;;;;6.70;3.60;;;;;;;2.10;93.83;102451.56;4932352;29;20023;-90
2024/01/29 04:56:13;;;;;;;7.20;3.90;;;;;;;2.12;93.34;102450.81;4932212;29;20489;-89
2024/01/29 04:58:38;;;;;;;6.23;3.90;;;;;;;2.16;93.51;102446.66;4947110;29;20083;-90
2024/01/29 05:01:04;;;;;;;6.63;3.73;;;;;;;2.19;93.39;102457.03;4931784;29;20413;-90
2024/01/29 05:03:29;;;;;;;6.87;4.07;;;;;;;2.21;93.21;102452.84;4916547;29;20082;-90
2024/01/29 05:05:55;;;;;;;6.30;3.80;;;;;;;2.24;93.51;102452.91;4932212;29;20026;-90
2024/01/29 05:08:20;;;;;;;6.83;4.20;;;;;;;2.26;93.46;102455.56;4931980;29;20055;-91
2024/01/29 05:10:46;;;;;;;6.30;3.87;;;;;;;2.26;93.61;102443.56;4931704;29;20055;-90
2024/01/29 05:13:11;;;;;;;6.30;3.80;;;;;;;2.28;93.42;102446.22;4931719;29;20048;-90
2024/01/29 05:15:37;;;;;;;5.77;3.63;;;;;;;2.30;93.59;102448.81;4932249;29;20482;-91
2024/01/29 05:18:02;;;;;;;6.33;3.77;;;;;;;2.32;93.56;102449.75;4931851;29;20295;-90
2024/01/29 05:20:29;;;;;;;6.20;3.83;;;;;;;2.33;93.17;102447.22;4931869;29;20060;-89
2024/01/29 05:22:55;;;;;;;5.50;3.63;;;;;;;2.34;93.11;102450.69;4931645;29;20023;-90
2024/01/29 05:25:20;;;;;;;6.50;3.83;;;;;;;2.35;93.19;102447.28;4932055;29;20533;-89
2024/01/29 05:27:45;;;;;;;6.43;3.77;;;;;;;2.35;92.91;102447.28;4931967;29;20111;-90
2024/01/29 05:30:11;;;;;;;6.37;3.60;;;;;;;2.37;93.45;102450.78;4918602;29;20212;-91
2024/01/29 05:32:36;;;;;;;7.77;4.00;;;;;;;2.37;93.30;102449.09;4935242;29;20114;-90
2024/01/29 05:35:02;;;;;;;6.03;3.60;;;;;;;2.36;93.27;102449.91;4935495;29;20098;-89
2024/01/29 05:37:28;;;;;;;6.97;3.90;;;;;;;2.39;93.80;102449.16;4935015;29;20020;-90
2024/01/29 05:39:54;;;;;;;6.23;3.73;;;;;;;2.40;93.61;102450.88;4918255;29;20477;-90
2024/01/29 05:42:19;;;;;;;7.43;3.83;;;;;;;2.41;93.53;102447.50;4934961;29;20046;-91
2024/01/29 05:44:44;;;;;;;5.93;3.70;;;;;;;2.41;93.50;102445.81;4935259;29;20187;-90
2024/01/29 05:47:10;;;;;;;5.70;3.63;;;;;;;2.44;93.62;102447.59;4950532;28;20031;-90
2024/01/29 05:49:36;;;;;;;6.70;3.60;;;;;;;2.44;94.06;102452.72;4935396;29;20038;-90
2024/01/29 05:52:01;;;;;;;6.20;3.57;;;;;;;2.47;93.10;102457.13;4935890;29;20027;-89
2024/01/29 05:54:27;;;;;;;6.67;3.80;;;;;;;2.49;93.73;102466.63;4934987;29;20062;-91
2024/01/29 05:56:52;;;;;;;7.00;4.07;;;;;;;2.48;93.35;102470.00;4935721;29;20082;-89
2024/01/29 05:59:17;;;;;;;6.80;3.83;;;;;;;2.49;93.69;102469.19;4919303;29;20110;-89
2024/01/29 06:01:43;;;;;;;7.70;4.13;;;;;;;2.51;93.58;102471.78;4949975;28;20031;-91
2024/01/29 06:04:08;;;;;;;6.60;4.07;;;;;;;2.52;93.79;102471.88;4949379;28;20030;-89
2024/01/29 06:06:35;;;;;;;8.13;4.20;;;;;;;2.53;93.97;102478.75;4935382;29;20512;-89
2024/01/29 06:09:01;;;;;;;5.80;4.03;;;;;;;2.53;94.08;102473.63;4919869;29;20031;-90
2024/01/29 06:11:27;;;;;;;6.10;3.83;;;;;;;2.55;93.90;102476.22;4935536;29;20028;-90
2024/01/29 06:13:52;;;;;;;5.90;4.10;;;;;;;2.55;93.93;102471.97;4935652;29;20106;-90
2024/01/29 06:16:25;;;;;;;5.17;3.63;;;;;;;2.57;93.73;102475.44;4936201;29;20055;-91
2024/01/29 06:18:50;;;;;;;7.67;4.23;;;;;;;2.60;94.20;102474.69;4934575;29;20028;-90
2024/01/29 06:21:16;;;;;;;6.80;4.20;;;;;;;2.58;93.92;102466.91;4936021;29;20107;-90
2024/01/29 06:23:42;;;;;;;7.43;4.13;;;;;;;2.62;93.87;102467.03;4935830;29;20639;-90
2024/01/29 06:26:07;;;;;;;7.57;4.33;;;;;;;2.62;93.89;102469.59;4919059;29;20078;-89
2024/01/29 06:28:32;;;;;;;6.13;3.80;;;;;;;2.59;94.26;102472.94;4935358;29;20111;-91
2024/01/29 06:30:59;;;;;;;6.60;3.60;;;;;;;2.63;94.23;102476.47;4935467;29;20059;-90
2024/01/29 06:33:25;;;;;;;6.67;4.17;;;;;;;2.63;93.99;102461.06;4935736;29;20094;-91
2024/01/29 06:35:51;;;;;;;7.07;4.00;;;;;;;2.66;94.21;102459.47;4935683;29;20062;-91
2024/01/29 06:38:17;;;;;;;5.83;4.00;;;;;;;2.68;93.81;102469.81;4934489;29;20477;-90
2024/01/29 06:40:42;;;;;;;7.87;4.17;;;;;;;2.69;93.95;102475.00;4935027;29;20036;-89
2024/01/29 06:43:08;;;;;;;7.07;4.10;;;;;;;2.71;93.75;102477.63;4918321;29;20080;-90
2024/01/29 06:45:33;;;;;;;7.67;4.03;;;;;;;2.72;94.32;102476.81;4934936;29;20064;-91
2024/01/29 06:47:58;;;;;;;8.63;4.37;;;;;;;2.71;94.01;102478.47;4935252;29;20503;-89
2024/01/29 06:50:24;;;;;;;6.93;4.17;;;;;;;2.74;93.68;102482.84;4918622;29;20028;-91
2024/01/29 06:52:49;;;;;;;6.47;3.90;;;;;;;2.75;93.79;102479.44;4935174;29;20030;-90
2024/01/29 06:55:17;;;;;;;6.27;3.70;;;;;;;2.76;93.73;102485.47;4935341;29;20046;-90
2024/01/29 06:57:43;;;;;;;6.33;3.60;;;;;;;2.77;93.51;102482.09;4935531;29;20024;-90
2024/01/29 07:00:09;;;;;;;7.60;4.07;;;;;;;2.78;93.48;102488.97;4935122;29;20098;-91
2024/01/29 07:02:35;;;;;;;8.33;4.30;;;;;;;2.79;93.80;102483.03;4935435;29;20079;-90
2024/01/29 07:05:00;;;;;;;7.80;4.67;;;;;;;2.80;93.53;102484.78;4935224;29;20024;-90
2024/01/29 07:07:25;;;;;;;5.90;3.87;;;;;;;2.81;94.08;102489.94;4918291;29;20071;-90
2024/01/29 07:09:56;;;;;;;6.97;4.20;;;;;;;2.82;93.87;102481.41;4935106;29;20047;-91
2024/01/29 07:12:22;;;;;;;7.13;4.30;;;;;;;2.82;94.00;102491.69;4935065;29;20454;-90
2024/01/29 07:14:49;;;;;;;6.17;3.80;;;;;;;2.83;93.86;102501.16;4934405;29;20027;-90
2024/01/29 07:17:14;;;;;;;8.23;3.97;;;;;;;2.84;94.03;102500.34;4917242;29;20055;-90
2024/01/29 07:19:39;;;;;;;6.73;4.30;;;;;;;2.85;94.03;102509.78;4949312;29;20122;-92
2024/01/29 07:22:05;;;;;;;6.80;4.13;;;;;;;2.85;93.86;102511.47;4933543;29;20503;-90
2024/01/29 07:24:36;;;;;;;7.17;3.77;;;;;;;2.87;93.94;102517.53;4949902;28;20027;-91
2024/01/29 07:27:01;;;;;;;5.95;3.80;;;;;;;2.86;94.12;102519.25;4932935;29;20543;-91
2024/01/29 07:29:26;;;;;;;6.57;4.10;;;;;;;2.88;93.95;102515.03;4917970;29;20027;-89
2024/01/29 07:31:55;;;;;;;6.27;3.73;;;;;;;2.90;94.20;102527.09;4934625;29;20405;-91
2024/01/29 07:34:21;;;;;;;8.13;4.10;;;;;;;2.93;93.80;102534.88;4935150;29;20555;-90
2024/01/29 07:36:47;;;;;;;6.80;4.00;;;;;;;2.94;94.26;102529.78;4934138;29;20028;-91
2024/01/29 07:39:12;;;;;;;7.53;3.90;;;;;;;2.96;94.59;102527.25;4934136;29;20028;-90
2024/01/29 07:41:39;;;;;;;5.70;3.57;;;;;;;2.98;94.33;102529.09;4934197;29;20103;-90
2024/01/29 07:44:04;;;;;;;6.57;3.43;;;;;;;3.01;94.25;102539.44;4934211;29;20073;-91
2024/01/29 07:46:29;;;;;;;6.23;3.73;;;;;;;3.04;94.43;102534.41;4933016;29;20493;-91
2024/01/29 07:48:56;;;;;;;6.13;3.60;;;;;;;3.08;94.83;102535.38;4935352;29;20034;-89
2024/01/29 07:51:21;;;;;;;5.87;3.47;;;;;;;3.11;94.55;102540.63;4916075;29;20036;-90
2024/01/29 07:53:47;;;;;;;6.57;3.77;;;;;;;3.14;94.60;102539.88;4933775;29;20059;-90
2024/01/29 07:56:12;;;;;;;5.93;3.57;;;;;;;3.17;94.26;102545.09;4933634;29;20028;-90
2024/01/29 07:58:38;;;;;;;6.77;3.77;;;;;;;3.21;94.53;102544.38;4933892;29;20032;-91
2024/01/29 08:01:04;;;;;;;8.47;3.67;;;;;;;3.24;94.79;102546.19;4933979;29;20023;-88
2024/01/29 08:03:29;;;;;;;6.03;3.93;;;;;;;3.25;94.25;102542.75;4933991;29;20589;-91
2024/01/29 08:05:54;;;;;;;6.90;3.97;;;;;;;3.28;94.40;102537.72;4933785;29;20087;-91
2024/01/29 08:08:20;;;;;;;6.43;3.77;;;;;;;3.31;94.02;102549.00;4934461;29;20086;-89
2024/01/29 08:10:46;;;;;;;6.97;3.90;;;;;;;3.33;94.28;102541.31;4917072;29;20027;-91
2024/01/29 08:13:11;;;;;;;6.43;3.63;;;;;;;3.34;94.35;102532.78;4934205;29;20030;-92
2024/01/29 08:15:37;;;;;;;6.93;3.87;;;;;;;3.37;94.18;102538.03;4932621;29;20019;-89
2024/01/29 08:18:02;;;;;;;6.00;3.93;;;;;;;3.40;94.25;102538.13;4933410;29;20032;-91
2024/01/29 08:20:28;;;;;;;7.03;3.77;;;;;;;3.44;94.30;102544.25;4933590;29;20055;-90
2024/01/29 08:22:53;;;;;;;6.47;3.97;;;;;;;3.47;94.59;102534.03;4917498;29;20028;-91
2024/01/29 08:25:20;;;;;;;7.40;4.07;;;;;;;3.52;94.36;102549.63;4927427;29;20055;-90
2024/01/29 08:27:45;;;;;;;5.63;3.67;;;;;;;3.55;94.76;102548.00;4933040;29;20063;-90
2024/01/29 08:30:11;;;;;;;7.20;4.13;;;;;;;3.61;94.58;102557.63;4933516;29;20442;-90
2024/01/29 08:32:36;;;;;;;7.23;4.30;;;;;;;3.65;94.42;102549.16;4932784;29;20023;-91
2024/01/29 08:35:02;;;;;;;7.30;4.07;;;;;;;3.70;94.46;102551.88;4933061;29;20504;-91
2024/01/29 08:37:28;;;;;;;8.00;3.80;;;;;;;3.74;93.98;102552.03;4932690;29;20055;-91
2024/01/29 08:39:53;;;;;;;6.80;4.17;;;;;;;3.78;94.29;102553.00;4933293;29;20054;-92
2024/01/29 08:42:18;;;;;;;7.10;4.33;;;;;;;3.83;94.72;102558.28;4947461;29;20106;-91
2024/01/29 08:44:45;;;;;;;6.60;3.90;;;;;;;3.84;94.29;102549.72;4932905;29;20127;-93
2024/01/29 08:47:10;;;;;;;7.50;4.47;;;;;;;3.87;94.29;102550.69;4918751;29;20027;-92
2024/01/29 08:49:36;;;;;;;6.10;4.10;;;;;;;3.91;94.35;102555.09;4933213;29;20028;-90
2024/01/29 08:52:01;;;;;;;6.87;4.00;;;;;;;3.97;94.68;102556.97;4932891;29;20028;-92
2024/01/29 08:54:27;;;;;;;6.67;4.10;;;;;;;3.99;94.86;102555.31;4932565;29;20082;-91
2024/01/29 08:56:52;;;;;;;6.70;4.33;;;;;;;4.03;94.60;102554.59;4932836;29;20028;-91
2024/01/29 08:59:19;;;;;;;7.53;4.10;;;;;;;4.07;94.52;102550.41;4933090;29;20607;-91
2024/01/29 09:01:45;;;;;;;6.90;4.30;;;;;;;4.10;94.42;102548.78;4946122;28;20079;-91
2024/01/29 09:04:10;;;;;;;6.67;4.30;;;;;;;4.14;94.79;102548.88;4929124;29;20516;-91
2024/01/29 09:06:36;;;;;;;8.40;4.27;;;;;;;4.15;94.40;102550.63;4934292;29;20031;-91
2024/01/29 09:09:01;;;;;;;7.40;4.27;;;;;;;4.19;94.10;102555.03;4934115;29;20027;-92
2024/01/29 09:11:27;;;;;;;7.73;4.53;;;;;;;4.21;94.79;102550.81;4932534;29;20174;-90
2024/01/29 09:13:52;;;;;;;6.93;3.87;;;;;;;4.25;94.73;102542.34;4934303;29;20038;-92
2024/01/29 09:16:17;;;;;;;6.87;4.10;;;;;;;4.27;94.59;102539.78;4933606;29;20016;-91
2024/01/29 09:18:43;;;;;;;7.13;4.50;;;;;;;4.30;94.02;102545.03;4915364;29;20035;-92
2024/01/29 09:21:09;;;;;;;7.63;5.00;;;;;;;4.35;93.96;102544.31;4934886;29;20027;-92
2024/01/29 09:23:35;;;;;;;8.10;4.50;;;;;;;4.36;94.13;102546.06;4933867;29;20028;-94
2024/01/29 09:26:00;;;;;;;7.80;4.33;;;;;;;4.38;93.94;102544.41;4933554;29;20092;-91
2024/01/29 09:28:26;;;;;;;8.93;4.40;;;;;;;4.41;94.07;102541.03;4930381;29;20032;-92
2024/01/29 09:31:29;;;;;;;7.67;4.67;;;;;;;4.44;93.82;102537.69;4933200;29;20020;-96
2024/01/29 09:33:54;;;;;;;6.70;4.13;;;;;;;4.44;94.28;102538.56;4931085;29;20023;-93
2024/01/29 09:37:08;;;;;;;;;;;;;;;;;;;;;
2024/01/29 09:44:44;;;;;;;6.77;4.00;;;;;;;4.57;94.22;102552.66;4808337;29;20039;-94
2024/01/29 09:46:53;;;;;;;6.18;3.80;;;;;;;4.62;93.92;102558.78;4752977;30;20271;-92
2024/01/29 09:49:25;;;;;;;7.45;4.10;;;;;;;4.65;94.19;102558.88;4785798;29;20110;-92
2024/01/29 10:01:45;;;;;;;7.18;4.60;;;;;;;4.90;94.41;102576.69;4808721;29;20092;-93
2024/01/29 10:04:11;;;;;;;6.23;4.13;;;;;;;4.94;94.66;102573.38;4833801;29;20090;-92
2024/01/29 10:06:44;;;;;;;6.97;4.43;;;;;;;4.98;94.68;102578.63;4876740;29;20035;-94
2024/01/29 10:09:22;;;;;;;7.50;4.70;;;;;;;5.05;94.43;102578.81;4934721;29;20052;-92
2024/01/29 10:13:02;;;;;;;;;;;;;;;;;;;;;
2024/01/29 10:15:37;;;;;;;6.27;4.00;;;;;;;5.16;94.33;102583.41;4867234;29;20047;-92
2024/01/29 10:18:10;;;;;;;7.70;4.15;;;;;;;5.21;94.30;102578.34;4918516;29;20035;-95
2024/01/29 10:23:18;;;;;;;7.30;4.63;;;;;;;5.34;94.78;102579.53;5544241;23;20074;-96
2024/01/29 10:26:16;;;;;;;;;;;;;;;;;;;;;
2024/01/29 10:28:41;;;;;;;7.70;4.65;;;;;;;5.48;94.31;102587.59;4957937;28;20121;-92
2024/01/29 10:31:12;;;;;;;7.78;4.82;;;;;;;5.57;94.34;102592.09;4957520;28;20115;-95
2024/01/29 10:33:42;;;;;;;7.40;4.65;;;;;;;5.61;94.38;102581.91;4963051;29;20058;-92
2024/01/29 10:43:19;;;;;;;;;;;;;;;;;;;;;
2024/01/29 10:46:31;;;;;;;9.50;4.70;;;;;;;5.96;93.45;102582.66;4956242;29;20027;-94
2024/01/29 10:51:42;;;;;;;8.55;4.78;;;;;;;6.14;93.87;102583.06;5792629;23;19953;-95
2024/01/29 10:54:10;;;;;;;8.25;4.88;;;;;;;6.20;93.84;102590.94;4951143;29;20027;-94
2024/01/29 10:56:36;;;;;;;19.77;5.10;;;;;;;6.26;93.72;102586.75;4940138;29;20023;-94
2024/01/29 10:59:06;;;;;;;8.35;5.00;;;;;;;6.29;92.51;102590.25;4943186;29;20194;-93
2024/01/29 11:01:34;;;;;;;8.40;5.10;;;;;;;6.35;93.02;102594.66;4958012;28;20034;-89
2024/01/29 11:04:00;;;;;;;9.05;5.57;;;;;;;6.39;92.73;102593.91;4957974;28;20078;-91
2024/01/29 11:06:58;;;;;;;10.32;5.15;;;;;;;6.47;92.74;102602.69;4954173;28;20541;-94
2024/01/29 11:09:33;;;;;;;8.07;4.75;;;;;;;6.51;92.81;102594.13;4975337;28;20038;-95
2024/01/29 11:11:59;;;;;;;9.73;5.40;;;;;;;6.57;92.73;102587.34;4969083;28;20033;-93
2024/01/29 11:14:40;;;;;;;;;;;;;;;;;;;;;
2024/01/29 11:17:09;;;;;;;10.75;5.13;;;;;;;6.70;92.60;102581.56;4957383;29;20075;-90
2024/01/29 11:19:35;;;;;;;9.07;5.35;;;;;;;6.77;92.91;102583.41;4954037;29;20167;-93
2024/01/29 11:22:20;;;;;;;9.13;5.10;;;;;;;6.84;93.16;102577.50;4962691;28;20501;-95
2024/01/29 11:24:56;;;;;;;;;;;;;;;;;;;;;
2024/01/29 11:27:21;;;;;;;8.13;5.43;;;;;;;6.99;92.01;102576.91;4956983;28;20126;-93
2024/01/29 11:29:47;;;;;;;8.73;5.70;;;;;;;7.05;91.52;102568.38;4952133;29;20106;-93
2024/01/29 11:32:15;;;;;;;11.10;5.60;;;;;;;7.12;91.57;102567.63;4951274;28;20388;-92
2024/01/29 11:35:16;;;;;;;9.40;5.63;;;;;;;7.23;91.31;102569.53;4957477;28;20023;-93
2024/01/29 11:37:45;;;;;;;9.30;5.15;;;;;;;7.30;92.16;102566.19;4968958;28;20109;-94
2024/01/29 11:40:32;;;;;;;8.88;5.47;;;;;;;7.38;90.87;102580.13;4955387;29;20023;-94
2024/01/29 11:42:59;;;;;;;8.13;5.45;;;;;;;7.44;90.75;102575.03;4952663;29;20074;-94
2024/01/29 11:45:27;;;;;;;9.00;5.95;;;;;;;7.51;90.68;102569.97;4951087;29;20135;-93
2024/01/29 11:47:52;;;;;;;9.23;5.90;;;;;;;7.58;90.46;102571.78;4952207;29;20027;-92
2024/01/29 11:50:20;;;;;;;9.63;5.75;;;;;;;7.66;90.56;102562.41;4951122;28;20023;-94
2024/01/29 11:52:46;;;;;;;9.30;6.13;;;;;;;7.71;90.28;102568.50;4955868;29;20062;-94
2024/01/29 11:55:12;;;;;;;8.90;5.50;;;;;;;7.80;89.95;102561.72;4953418;29;20027;-91
2024/01/29 11:57:55;;;;;;;;;;;;;;;;;;;;;
2024/01/29 12:00:21;;;;;;;9.75;5.82;;;;;;;7.92;89.99;102556.72;4963908;29;20576;-96
2024/01/29 12:02:48;;;;;;;8.15;5.55;;;;;;;8.01;90.14;102555.97;4951538;29;20027;-89
2024/01/29 12:05:34;;;;;;;8.50;5.18;;;;;;;8.08;90.63;102551.72;4954282;28;20029;-95
2024/01/29 12:08:47;;;;;;;10.48;5.30;;;;;;;8.16;90.75;102552.69;4956139;29;21705;-94